createdAt,value
2023-03-13T00:00:34.014Z,19.00
2023-03-13T00:03:56.179Z,19.00
2023-03-13T00:07:18.412Z,19.00
2023-03-13T00:10:41.197Z,19.00
2023-03-13T00:14:04.386Z,19.00
2023-03-13T00:17:26.534Z,19.00
2023-03-13T00:20:50.597Z,19.00
2023-03-13T00:24:12.800Z,18.90
2023-03-13T00:27:35.076Z,18.90
2023-03-13T00:31:01.161Z,18.90
2023-03-13T00:34:26.458Z,18.90
2023-03-13T00:37:48.676Z,18.90
2023-03-13T00:41:15.439Z,18.90
2023-03-13T00:44:37.546Z,18.90
2023-03-13T00:47:59.756Z,18.90
2023-03-13T00:51:23.792Z,18.90
2023-03-13T00:54:46.359Z,18.90
2023-03-13T00:58:08.961Z,18.90
2023-03-13T01:01:33.125Z,18.90
2023-03-13T01:04:56.846Z,18.90
2023-03-13T01:08:20.235Z,18.90
2023-03-13T01:11:43.071Z,18.90
2023-03-13T01:15:05.426Z,18.90
2023-03-13T01:18:27.583Z,18.90
2023-03-13T01:21:49.794Z,18.90
2023-03-13T01:25:11.934Z,18.80
2023-03-13T01:28:34.683Z,18.90
2023-03-13T01:31:56.886Z,18.90
2023-03-13T01:35:20.560Z,18.80
2023-03-13T01:38:44.593Z,18.80
2023-03-13T01:42:07.546Z,18.80
2023-03-13T01:45:48.544Z,18.80
2023-03-13T01:49:20.244Z,18.80
2023-03-13T01:52:50.163Z,18.80
2023-03-13T01:56:28.904Z,18.80
2023-03-13T01:59:51.172Z,18.80
2023-03-13T02:03:15.319Z,18.80
2023-03-13T02:06:38.807Z,18.80
2023-03-13T02:10:01.158Z,18.80
2023-03-13T02:13:24.049Z,18.80
2023-03-13T02:16:48.893Z,18.80
2023-03-13T02:20:11.654Z,18.80
2023-03-13T02:23:41.581Z,18.80
2023-03-13T02:27:04.129Z,18.80
2023-03-13T02:30:28.403Z,18.80
2023-03-13T02:33:50.663Z,18.80
2023-03-13T02:37:15.368Z,18.80
2023-03-13T02:40:40.145Z,18.80
2023-03-13T02:44:03.587Z,18.80
2023-03-13T02:47:25.918Z,18.80
2023-03-13T02:50:49.785Z,18.70
2023-03-13T02:54:14.225Z,18.80
2023-03-13T02:57:37.701Z,18.80
2023-03-13T03:01:07.706Z,18.80
2023-03-13T03:04:32.798Z,18.80
2023-03-13T03:07:54.986Z,18.80
2023-03-13T03:11:18.878Z,18.70
2023-03-13T03:14:45.517Z,18.70
2023-03-13T03:18:07.783Z,18.80
2023-03-13T03:21:30.083Z,18.70
2023-03-13T03:24:52.306Z,18.70
2023-03-13T03:28:14.458Z,18.80
2023-03-13T03:31:38.217Z,18.70
2023-03-13T03:35:01.093Z,18.70
2023-03-13T03:38:23.967Z,18.70
2023-03-13T03:41:46.302Z,18.70
2023-03-13T03:45:09.070Z,18.80
2023-03-13T03:48:31.324Z,18.70
2023-03-13T03:51:53.753Z,18.70
2023-03-13T03:55:22.440Z,18.80
2023-03-13T03:58:44.852Z,18.80
2023-03-13T04:02:12.650Z,18.70
2023-03-13T04:05:36.661Z,18.70
2023-03-13T04:08:58.847Z,18.70
2023-03-13T04:12:23.380Z,18.70
2023-03-13T04:15:48.840Z,18.70
2023-03-13T04:19:12.042Z,18.70
2023-03-13T04:22:34.372Z,18.70
2023-03-13T04:25:57.545Z,18.70
2023-03-13T04:29:19.802Z,18.70
2023-03-13T04:32:51.781Z,18.70
2023-03-13T04:36:13.989Z,18.70
2023-03-13T04:39:55.482Z,18.70
2023-03-13T04:43:32.688Z,18.70
2023-03-13T04:47:29.958Z,18.70
2023-03-13T04:51:24.215Z,18.70
2023-03-13T04:55:06.792Z,18.70
2023-03-13T04:58:49.217Z,18.70
2023-03-13T05:02:26.195Z,18.70
2023-03-13T05:06:08.625Z,18.70
2023-03-13T05:09:57.530Z,18.70
2023-03-13T05:13:39.937Z,18.70
2023-03-13T05:17:25.412Z,18.70
2023-03-13T05:21:06.449Z,18.70
2023-03-13T05:24:47.139Z,18.70
2023-03-13T05:28:43.770Z,18.70
2023-03-13T05:32:24.268Z,18.70
2023-03-13T05:36:21.537Z,18.70
2023-03-13T05:39:59.917Z,18.80
2023-03-13T05:43:34.656Z,18.80
2023-03-13T05:47:18.685Z,18.80
2023-03-13T05:50:54.778Z,18.80
2023-03-13T05:54:35.277Z,18.90
2023-03-13T05:58:23.612Z,18.90
2023-03-13T06:02:02.748Z,18.90
2023-03-13T06:05:33.909Z,18.90
2023-03-13T06:08:57.844Z,19.00
2023-03-13T06:12:23.474Z,19.00
2023-03-13T06:15:53.065Z,19.00
2023-03-13T06:19:32.062Z,19.00
2023-03-13T06:22:54.211Z,19.00
2023-03-13T06:26:16.386Z,19.00
2023-03-13T06:29:38.579Z,19.00
2023-03-13T06:33:00.868Z,19.00
2023-03-13T06:36:23.960Z,19.00
2023-03-13T06:39:46.144Z,19.10
2023-03-13T06:43:08.265Z,19.00
2023-03-13T06:46:31.408Z,19.10
2023-03-13T06:49:53.631Z,19.20
2023-03-13T06:53:17.248Z,19.20
2023-03-13T06:56:39.469Z,19.20
2023-03-13T07:00:01.720Z,19.30
2023-03-13T07:03:24.284Z,19.30
2023-03-13T07:06:46.469Z,19.30
2023-03-13T07:10:10.616Z,19.30
2023-03-13T07:13:33.042Z,19.40
2023-03-13T07:16:55.369Z,19.40
2023-03-13T07:20:17.939Z,19.50
2023-03-13T07:23:40.283Z,19.60
2023-03-13T07:27:07.603Z,19.60
2023-03-13T07:30:30.247Z,19.50
2023-03-13T07:33:56.343Z,19.40
2023-03-13T07:37:18.750Z,19.50
2023-03-13T07:40:47.117Z,19.50
2023-03-13T07:44:09.469Z,19.50
2023-03-13T07:47:33.701Z,19.60
2023-03-13T07:50:56.228Z,19.50
2023-03-13T07:54:18.458Z,19.60
2023-03-13T07:57:40.717Z,19.60
2023-03-13T08:01:10.271Z,19.60
2023-03-13T08:04:32.452Z,19.60
2023-03-13T08:07:54.649Z,19.60
2023-03-13T08:11:18.261Z,19.70
2023-03-13T08:14:40.376Z,19.70
2023-03-13T08:18:02.582Z,19.70
2023-03-13T08:21:26.478Z,19.60
2023-03-13T08:24:48.721Z,19.60
2023-03-13T08:28:11.464Z,19.70
2023-03-13T08:31:35.317Z,19.70
2023-03-13T08:34:57.528Z,19.80
2023-03-13T08:38:19.747Z,19.90
2023-03-13T08:41:41.996Z,20.00
2023-03-13T08:45:05.130Z,20.10
2023-03-13T08:48:28.246Z,20.30
2023-03-13T08:51:50.456Z,20.70
2023-03-13T08:55:12.670Z,21.10
2023-03-13T08:58:34.849Z,22.10
2023-03-13T09:01:57.147Z,22.40
2023-03-13T09:05:19.339Z,22.50
2023-03-13T09:08:41.761Z,21.50
2023-03-13T09:12:03.939Z,20.80
2023-03-13T09:15:26.157Z,20.40
2023-03-13T09:18:48.678Z,20.20
2023-03-13T09:22:10.812Z,20.00
2023-03-13T09:25:33.021Z,19.90
2023-03-13T09:28:55.399Z,19.90
2023-03-13T09:32:20.455Z,20.00
2023-03-13T09:35:42.854Z,20.00
2023-03-13T09:39:05.092Z,19.90
2023-03-13T09:42:44.245Z,19.70
2023-03-13T09:46:09.452Z,19.70
2023-03-13T09:49:34.909Z,19.70
2023-03-13T09:53:04.382Z,19.80
2023-03-13T09:56:30.483Z,19.90
2023-03-13T09:59:55.804Z,20.00
2023-03-13T10:03:20.806Z,20.00
2023-03-13T10:06:44.096Z,19.90
2023-03-13T10:10:11.346Z,19.80
2023-03-13T10:13:39.676Z,19.60
2023-03-13T10:17:20.718Z,19.60
2023-03-13T10:20:43.555Z,19.60
2023-03-13T10:24:17.749Z,19.70
2023-03-13T10:27:51.062Z,19.60
2023-03-13T10:31:25.647Z,19.60
2023-03-13T10:34:51.497Z,19.50
2023-03-13T10:38:15.443Z,19.50
2023-03-13T10:41:38.556Z,19.50
2023-03-13T10:45:01.646Z,19.50
2023-03-13T10:48:25.095Z,19.50
2023-03-13T10:51:54.829Z,19.50
2023-03-13T10:55:18.732Z,19.50
2023-03-13T10:58:43.783Z,19.50
2023-03-13T11:02:20.616Z,19.50
2023-03-13T11:05:43.284Z,19.40
2023-03-13T11:09:14.413Z,19.40
2023-03-13T11:12:36.621Z,19.50
2023-03-13T11:16:01.271Z,19.60
2023-03-13T11:19:43.765Z,19.60
2023-03-13T11:23:13.887Z,19.60
2023-03-13T11:26:38.169Z,19.60
2023-03-13T11:30:12.826Z,19.60
2023-03-13T11:33:53.253Z,19.60
2023-03-13T11:37:16.492Z,19.60
2023-03-13T11:40:45.628Z,19.60
2023-03-13T11:44:10.805Z,19.70
2023-03-13T11:47:32.972Z,19.70
2023-03-13T11:50:56.479Z,19.60
2023-03-13T11:54:18.643Z,19.70
2023-03-13T11:57:40.753Z,19.70
2023-03-13T12:01:08.723Z,19.80
2023-03-13T12:04:35.481Z,19.90
2023-03-13T12:08:01.866Z,19.90
2023-03-13T12:11:27.053Z,20.00
2023-03-13T12:15:00.115Z,20.00
2023-03-13T12:18:22.266Z,20.00
2023-03-13T12:21:50.416Z,20.00
2023-03-13T12:25:12.635Z,20.00
2023-03-13T12:28:43.032Z,20.00
2023-03-13T12:32:11.036Z,20.00
2023-03-13T12:35:33.690Z,19.90
2023-03-13T12:39:00.155Z,19.70
2023-03-13T12:42:46.054Z,19.60
2023-03-13T12:46:27.029Z,19.70
2023-03-13T12:49:55.466Z,19.90
2023-03-13T12:53:36.548Z,19.90
2023-03-13T12:56:58.655Z,19.80
2023-03-13T13:00:22.414Z,19.90
2023-03-13T13:03:59.149Z,19.90
2023-03-13T13:07:23.708Z,19.90
2023-03-13T13:10:45.876Z,19.90
2023-03-13T13:14:17.119Z,19.90
2023-03-13T13:17:44.477Z,19.90
2023-03-13T13:21:06.950Z,20.00
2023-03-13T13:24:39.750Z,19.90
2023-03-13T13:28:22.099Z,19.90
2023-03-13T13:31:47.482Z,19.90
2023-03-13T13:35:12.633Z,19.90
2023-03-13T13:38:40.194Z,19.90
2023-03-13T13:42:22.401Z,19.80
2023-03-13T13:45:58.067Z,19.60
2023-03-13T13:49:21.174Z,19.50
2023-03-13T13:52:43.547Z,19.40
2023-03-13T13:56:25.630Z,19.40
2023-03-13T14:00:06.849Z,19.30
2023-03-13T14:03:33.026Z,19.50
2023-03-13T14:06:57.672Z,19.40
2023-03-13T14:10:30.763Z,19.40
2023-03-13T14:14:10.977Z,19.40
2023-03-13T14:17:38.670Z,19.40
2023-03-13T14:21:01.611Z,19.40
2023-03-13T14:24:23.732Z,19.40
2023-03-13T14:27:47.167Z,19.40
2023-03-13T14:31:10.014Z,19.40
2023-03-13T14:34:32.898Z,19.30
2023-03-13T14:38:01.529Z,19.30
2023-03-13T14:41:26.591Z,19.40
2023-03-13T14:44:50.348Z,19.50
2023-03-13T14:48:23.379Z,19.50
2023-03-13T14:51:45.700Z,19.50
2023-03-13T14:55:25.745Z,19.50
2023-03-13T14:58:48.804Z,19.50
2023-03-13T15:02:16.521Z,19.50
2023-03-13T15:05:38.780Z,19.50
2023-03-13T15:09:09.689Z,19.60
2023-03-13T15:12:32.592Z,19.60
2023-03-13T15:15:54.858Z,19.70
2023-03-13T15:19:17.064Z,19.60
2023-03-13T15:22:40.546Z,19.60
2023-03-13T15:26:02.730Z,19.60
2023-03-13T15:29:24.889Z,19.60
2023-03-13T15:32:47.414Z,19.70
2023-03-13T15:36:10.287Z,19.70
2023-03-13T15:39:32.477Z,19.60
2023-03-13T15:42:55.034Z,19.60
2023-03-13T15:46:17.297Z,19.60
2023-03-13T15:49:39.520Z,19.60
2023-03-13T15:53:01.858Z,19.60
2023-03-13T15:56:24.037Z,19.60
2023-03-13T15:59:46.271Z,19.60
2023-03-13T16:03:19.289Z,19.60
2023-03-13T16:06:41.500Z,19.60
2023-03-13T16:10:04.322Z,19.60
2023-03-13T16:13:26.748Z,19.60
2023-03-13T16:16:49.842Z,19.60
2023-03-13T16:20:19.179Z,19.60
2023-03-13T16:23:41.288Z,19.60
2023-03-13T16:27:10.197Z,19.60
2023-03-13T16:30:33.546Z,19.60
2023-03-13T16:33:56.330Z,19.60
2023-03-13T16:37:19.058Z,19.60
2023-03-13T16:40:41.272Z,19.60
2023-03-13T16:44:03.506Z,19.60
2023-03-13T16:47:28.303Z,19.60
2023-03-13T16:50:50.392Z,19.60
2023-03-13T16:54:12.616Z,19.60
2023-03-13T16:57:34.775Z,19.60
2023-03-13T17:01:05.378Z,19.50
2023-03-13T17:04:28.204Z,19.50
2023-03-13T17:07:51.025Z,19.40
2023-03-13T17:11:15.983Z,19.30
2023-03-13T17:14:40.087Z,19.20
2023-03-13T17:18:02.497Z,19.20
2023-03-13T17:21:25.774Z,19.20
2023-03-13T17:24:49.102Z,19.20
2023-03-13T17:28:14.156Z,19.20
2023-03-13T17:31:39.836Z,19.20
2023-03-13T17:35:02.395Z,19.20
2023-03-13T17:38:24.519Z,19.20
2023-03-13T17:41:46.683Z,19.30
2023-03-13T17:45:08.960Z,19.30
2023-03-13T17:48:31.133Z,19.30
2023-03-13T17:51:53.260Z,19.30
2023-03-13T17:55:15.478Z,19.30
2023-03-13T17:58:37.602Z,19.30
2023-03-13T18:01:59.803Z,19.30
2023-03-13T18:05:22.084Z,19.40
2023-03-13T18:08:44.943Z,19.30
2023-03-13T18:12:08.980Z,19.30
2023-03-13T18:15:31.113Z,19.30
2023-03-13T18:18:53.895Z,19.30
2023-03-13T18:22:17.645Z,19.30
2023-03-13T18:25:39.791Z,19.30
2023-03-13T18:29:12.589Z,19.30
2023-03-13T18:32:34.799Z,19.30
2023-03-13T18:35:57.074Z,19.30
2023-03-13T18:39:20.172Z,19.20
2023-03-13T18:42:42.399Z,19.20
2023-03-13T18:46:04.699Z,19.20
2023-03-13T18:49:26.956Z,19.20
2023-03-13T18:52:49.166Z,19.10
2023-03-13T18:56:16.040Z,19.10
2023-03-13T18:59:38.118Z,19.20
2023-03-13T19:03:00.270Z,19.10
2023-03-13T19:06:29.926Z,19.20
2023-03-13T19:09:53.316Z,19.20
2023-03-13T19:13:15.420Z,19.20
2023-03-13T19:16:39.997Z,19.20
2023-03-13T19:20:02.205Z,19.20
2023-03-13T19:23:24.803Z,19.20
2023-03-13T19:26:49.491Z,19.20
2023-03-13T19:30:15.848Z,19.30
2023-03-13T19:33:38.001Z,19.30
2023-03-13T19:37:00.212Z,19.30
2023-03-13T19:40:23.862Z,19.40
2023-03-13T19:43:47.976Z,19.40
2023-03-13T19:47:13.322Z,19.50
2023-03-13T19:50:35.907Z,19.50
2023-03-13T19:53:58.312Z,19.50
2023-03-13T19:57:20.600Z,19.50
2023-03-13T20:00:42.842Z,19.50
2023-03-13T20:04:05.125Z,19.60
2023-03-13T20:07:27.336Z,19.50
2023-03-13T20:10:50.087Z,19.50
2023-03-13T20:14:12.472Z,19.30
2023-03-13T20:17:34.763Z,19.20
2023-03-13T20:20:56.901Z,19.10
2023-03-13T20:24:19.127Z,19.20
2023-03-13T20:27:41.311Z,19.30
2023-03-13T20:31:03.884Z,19.40
2023-03-13T20:34:26.243Z,19.50
2023-03-13T20:37:50.088Z,19.50
2023-03-13T20:41:12.826Z,19.40
2023-03-13T20:44:35.029Z,19.30
2023-03-13T20:47:57.514Z,19.30
2023-03-13T20:51:19.662Z,19.40
2023-03-13T20:54:41.862Z,19.40
2023-03-13T20:58:04.041Z,19.40
2023-03-13T21:01:27.556Z,19.40
2023-03-13T21:04:50.098Z,19.40
2023-03-13T21:08:12.262Z,19.40
2023-03-13T21:11:34.424Z,19.40
2023-03-13T21:14:58.102Z,19.40
2023-03-13T21:18:20.261Z,19.40
2023-03-13T21:21:42.421Z,19.30
2023-03-13T21:25:05.043Z,19.20
2023-03-13T21:28:27.619Z,19.30
2023-03-13T21:31:49.907Z,19.30
2023-03-13T21:35:12.794Z,19.30
2023-03-13T21:38:35.238Z,19.30
2023-03-13T21:41:57.364Z,19.30
2023-03-13T21:45:19.491Z,19.40
2023-03-13T21:48:42.296Z,19.40
2023-03-13T21:52:04.645Z,19.30
2023-03-13T21:55:26.873Z,19.30
2023-03-13T21:58:49.090Z,19.40
2023-03-13T22:02:11.988Z,19.40
2023-03-13T22:05:34.197Z,19.30
2023-03-13T22:08:56.364Z,19.30
2023-03-13T22:12:18.676Z,19.30
2023-03-13T22:15:43.420Z,19.30
2023-03-13T22:19:05.635Z,19.30
2023-03-13T22:22:27.809Z,19.30
2023-03-13T22:25:50.056Z,19.30
2023-03-13T22:29:12.271Z,19.30
2023-03-13T22:32:34.461Z,19.20
2023-03-13T22:35:56.769Z,19.30
2023-03-13T22:39:19.004Z,19.30
2023-03-13T22:42:41.129Z,19.30
2023-03-13T22:46:04.615Z,19.30
2023-03-13T22:49:26.814Z,19.30
2023-03-13T22:52:48.934Z,19.30
2023-03-13T22:56:12.127Z,19.30
2023-03-13T22:59:34.245Z,19.30
2023-03-13T23:02:56.512Z,19.30
2023-03-13T23:06:19.907Z,19.30
2023-03-13T23:09:42.086Z,19.30
2023-03-13T23:13:04.525Z,19.30
2023-03-13T23:16:26.662Z,19.30
2023-03-13T23:19:48.816Z,19.30
2023-03-13T23:23:10.943Z,19.30
2023-03-13T23:26:33.080Z,19.20
2023-03-13T23:29:55.311Z,19.20
2023-03-13T23:33:17.520Z,19.20
2023-03-13T23:36:40.048Z,19.20
2023-03-13T23:40:02.979Z,19.20
2023-03-13T23:43:25.072Z,19.20
2023-03-13T23:46:47.267Z,19.20
2023-03-13T23:50:12.873Z,19.20
2023-03-13T23:53:39.331Z,19.20
2023-03-13T23:57:01.420Z,19.20
